CST,Max TemperatureF,Mean TemperatureF,Min TemperatureF,Max Dew PointF,MeanDew PointF,Min DewpointF,Max Humidity, Mean Humidity, Min Humidity, Max Sea Level PressureIn, Mean Sea Level PressureIn, Min Sea Level PressureIn, Max VisibilityMiles, Mean VisibilityMiles, Min VisibilityMiles, Max Wind SpeedMPH, Mean Wind SpeedMPH, Max Gust SpeedMPH,PrecipitationIn, CloudCover, Events, WindDirDegrees
2013-12-1,57,50,44,37,32,25,66,51,43,30.23,30.11,29.96,10,10,10,8,3,,0.00,7,,170
2013-12-2,60,53,46,45,40,34,76,62,54,29.95,29.83,29.75,10,10,5,7,3,,0.00,7,,152
2013-12-3,60,55,50,48,45,43,77,71,59,29.80,29.76,29.73,10,6,0,13,5,,0.00,6,,147
2013-12-4,75,66,57,55,54,48,82,65,50,29.84,29.75,29.69,10,10,7,16,9,29,0.00,4,,185
2013-12-5,66,55,42,55,46,30,73,67,61,30.11,29.93,29.83,10,10,7,17,8,25,0.00,8,,314
2013-12-6,,,,,,,,,,,,,,,,,,,,,,
2013-12-7,,,,,,,,,,,,,,,,,,,,,,
2013-12-8,,,,,,,,,,,,,,,,,,,,,,
2013-12-9,,,,,,,,,,,,,,,,,,,,,,
2013-12-10,,,,,,,,,,,,,,,,,,,,,,
2013-12-11,,,,,,,,,,,,,,,,,,,,,,
2013-12-12,,,,,,,,,,,,,,,,,,,,,,
2013-12-13,,,,,,,,,,,,,,,,,,,,,,
2013-12-14,,,,,,,,,,,,,,,,,,,,,,
2013-12-15,,,,,,,,,,,,,,,,,,,,,,
2013-12-16,55,50,44,36,32,28,54,49,44,30.18,30.13,30.10,10,10,10,18,11,25,0.00,0,,218
2013-12-17,50,42,32,34,29,21,70,59,50,30.34,30.22,30.13,10,10,10,15,8,22,0.00,0,,279
2013-12-18,55,40,26,30,24,18,69,52,35,30.37,30.26,30.11,10,10,8,13,4,20,0.00,0,,161
2013-12-19,62,53,44,45,38,30,63,57,48,30.15,30.06,29.95,10,10,6,18,9,31,0.00,3,,172
2013-12-20,66,62,57,55,51,45,77,66,59,29.97,29.91,29.80,10,10,2,15,10,29,1.65,7,Thunderstorm,178
2013-12-21,68,56,44,57,52,36,77,71,64,29.79,29.64,29.49,10,9,3,24,11,37,3.73,8,Thunderstorm,202
2013-12-22,51,43,35,43,35,23,76,67,56,30.26,29.98,29.73,10,9,2,17,9,18,1.32,8,,278
2013-12-23,35,32,28,23,19,16,69,56,48,30.53,30.44,30.26,10,10,10,14,9,21,0.00,5,,341
2013-12-24,30,24,19,16,10,3,59,52,37,30.65,30.55,30.45,10,10,10,16,8,20,0.00,2,,33
2013-12-25,46,34,23,27,18,9,65,52,39,30.44,30.38,30.32,10,10,10,9,4,,0.00,1,,191
2013-12-26,44,35,26,25,21,18,75,58,39,30.48,30.41,30.35,10,9,3,8,2,,0.00,0,,345
2013-12-27,53,40,26,28,23,16,69,56,38,30.49,30.42,30.37,10,10,7,8,1,,0.00,0,,180
2013-12-28,46,37,28,32,26,19,74,61,46,30.37,30.21,29.99,10,10,5,8,2,,0.02,3,,137
2013-12-29,51,40,30,36,30,18,81,65,52,30.24,30.06,29.96,10,8,0,17,6,23,0.11,6,,298
2013-12-30,30,26,23,18,13,12,63,57,51,30.37,30.30,30.24,10,10,10,14,8,,0.00,5,,353
2013-12-31,44,32,21,23,17,10,68,57,39,30.47,30.39,30.34,10,10,8,8,3,,0.00,0,,188